sensor_id;sensor_type;location;lat;lon;timestamp;P1;durP1;ratioP1;P2;durP2;ratioP2
77332;SDS011;66408;51.326;12.070;2023-03-01T00:00:49;13.75;;;5.78;;
77332;SDS011;66408;51.326;12.070;2023-03-01T00:03:15;15.00;;;6.03;;
77332;SDS011;66408;51.326;12.070;2023-03-01T00:05:45;13.02;;;5.45;;
77332;SDS011;66408;51.326;12.070;2023-03-01T00:08:13;12.75;;;5.55;;
77332;SDS011;66408;51.326;12.070;2023-03-01T00:10:39;13.02;;;6.10;;
77332;SDS011;66408;51.326;12.070;2023-03-01T00:13:06;14.05;;;5.90;;
77332;SDS011;66408;51.326;12.070;2023-03-01T00:15:32;12.57;;;6.28;;
77332;SDS011;66408;51.326;12.070;2023-03-01T00:18:01;15.63;;;6.53;;
77332;SDS011;66408;51.326;12.070;2023-03-01T00:20:28;16.40;;;7.05;;
77332;SDS011;66408;51.326;12.070;2023-03-01T00:22:55;17.17;;;6.43;;
77332;SDS011;66408;51.326;12.070;2023-03-01T00:25:21;16.27;;;6.03;;
77332;SDS011;66408;51.326;12.070;2023-03-01T00:27:48;15.20;;;6.20;;
77332;SDS011;66408;51.326;12.070;2023-03-01T00:30:15;15.15;;;6.30;;
77332;SDS011;66408;51.326;12.070;2023-03-01T00:32:42;13.40;;;5.60;;
77332;SDS011;66408;51.326;12.070;2023-03-01T00:35:08;13.55;;;6.05;;
77332;SDS011;66408;51.326;12.070;2023-03-01T00:37:35;13.25;;;5.60;;
77332;SDS011;66408;51.326;12.070;2023-03-01T00:40:01;14.60;;;6.22;;
77332;SDS011;66408;51.326;12.070;2023-03-01T00:42:32;16.67;;;6.28;;
77332;SDS011;66408;51.326;12.070;2023-03-01T00:44:58;14.25;;;6.28;;
77332;SDS011;66408;51.326;12.070;2023-03-01T00:47:25;11.68;;;5.45;;
77332;SDS011;66408;51.326;12.070;2023-03-01T00:49:51;17.35;;;5.85;;
77332;SDS011;66408;51.326;12.070;2023-03-01T00:52:17;16.23;;;5.63;;
77332;SDS011;66408;51.326;12.070;2023-03-01T00:54:44;11.93;;;5.00;;
77332;SDS011;66408;51.326;12.070;2023-03-01T00:57:11;10.57;;;5.25;;
77332;SDS011;66408;51.326;12.070;2023-03-01T00:59:37;12.38;;;5.43;;
77332;SDS011;66408;51.326;12.070;2023-03-01T01:02:04;11.98;;;5.25;;
77332;SDS011;66408;51.326;12.070;2023-03-01T01:04:30;13.32;;;5.50;;
77332;SDS011;66408;51.326;12.070;2023-03-01T01:06:56;12.40;;;5.53;;
77332;SDS011;66408;51.326;12.070;2023-03-01T01:09:23;13.63;;;5.53;;
77332;SDS011;66408;51.326;12.070;2023-03-01T01:11:50;13.02;;;5.38;;
77332;SDS011;66408;51.326;12.070;2023-03-01T01:14:17;14.73;;;6.25;;
77332;SDS011;66408;51.326;12.070;2023-03-01T01:16:45;13.90;;;6.03;;
77332;SDS011;66408;51.326;12.070;2023-03-01T01:19:12;14.43;;;6.07;;
77332;SDS011;66408;51.326;12.070;2023-03-01T01:21:40;15.70;;;6.43;;
77332;SDS011;66408;51.326;12.070;2023-03-01T01:24:09;15.95;;;6.78;;
77332;SDS011;66408;51.326;12.070;2023-03-01T01:26:36;13.93;;;5.63;;
77332;SDS011;66408;51.326;12.070;2023-03-01T01:29:03;13.95;;;6.13;;
77332;SDS011;66408;51.326;12.070;2023-03-01T01:31:31;13.52;;;5.78;;
77332;SDS011;66408;51.326;12.070;2023-03-01T01:33:58;13.73;;;6.45;;
77332;SDS011;66408;51.326;12.070;2023-03-01T01:36:26;12.13;;;5.85;;
77332;SDS011;66408;51.326;12.070;2023-03-01T01:38:53;11.93;;;5.38;;
77332;SDS011;66408;51.326;12.070;2023-03-01T01:41:20;10.70;;;5.25;;
77332;SDS011;66408;51.326;12.070;2023-03-01T01:43:49;11.55;;;5.18;;
77332;SDS011;66408;51.326;12.070;2023-03-01T01:46:39;14.15;;;5.75;;
77332;SDS011;66408;51.326;12.070;2023-03-01T01:49:16;11.50;;;4.78;;
77332;SDS011;66408;51.326;12.070;2023-03-01T01:51:44;13.85;;;4.97;;
77332;SDS011;66408;51.326;12.070;2023-03-01T01:54:16;15.20;;;5.95;;
77332;SDS011;66408;51.326;12.070;2023-03-01T01:56:55;9.82;;;4.85;;
77332;SDS011;66408;51.326;12.070;2023-03-01T01:59:24;12.52;;;5.78;;
77332;SDS011;66408;51.326;12.070;2023-03-01T02:01:52;15.27;;;5.80;;
77332;SDS011;66408;51.326;12.070;2023-03-01T02:04:19;11.02;;;4.95;;
77332;SDS011;66408;51.326;12.070;2023-03-01T02:06:52;11.57;;;5.35;;
77332;SDS011;66408;51.326;12.070;2023-03-01T02:09:24;12.63;;;5.13;;
77332;SDS011;66408;51.326;12.070;2023-03-01T02:11:53;12.43;;;5.60;;
77332;SDS011;66408;51.326;12.070;2023-03-01T02:14:20;12.02;;;5.68;;
77332;SDS011;66408;51.326;12.070;2023-03-01T02:16:46;13.43;;;5.78;;
77332;SDS011;66408;51.326;12.070;2023-03-01T02:19:18;12.43;;;5.70;;
77332;SDS011;66408;51.326;12.070;2023-03-01T02:22:11;11.43;;;5.32;;
77332;SDS011;66408;51.326;12.070;2023-03-01T02:30:40;11.32;;;5.00;;
77332;SDS011;66408;51.326;12.070;2023-03-01T02:33:28;11.55;;;4.65;;
77332;SDS011;66408;51.326;12.070;2023-03-01T02:36:00;11.48;;;5.13;;
77332;SDS011;66408;51.326;12.070;2023-03-01T02:38:28;12.75;;;5.45;;
77332;SDS011;66408;51.326;12.070;2023-03-01T02:40:55;10.90;;;4.78;;
77332;SDS011;66408;51.326;12.070;2023-03-01T02:43:24;13.50;;;5.38;;
77332;SDS011;66408;51.326;12.070;2023-03-01T02:45:58;16.85;;;5.97;;
77332;SDS011;66408;51.326;12.070;2023-03-01T02:48:39;11.45;;;5.55;;
77332;SDS011;66408;51.326;12.070;2023-03-01T02:54:12;13.20;;;5.28;;
77332;SDS011;66408;51.326;12.070;2023-03-01T02:56:39;16.02;;;5.68;;
77332;SDS011;66408;51.326;12.070;2023-03-01T02:59:07;10.88;;;5.47;;
77332;SDS011;66408;51.326;12.070;2023-03-01T03:01:35;13.75;;;5.13;;
77332;SDS011;66408;51.326;12.070;2023-03-01T03:04:08;12.65;;;5.60;;
77332;SDS011;66408;51.326;12.070;2023-03-01T03:06:37;15.60;;;5.60;;
77332;SDS011;66408;51.326;12.070;2023-03-01T03:09:04;14.30;;;5.78;;
77332;SDS011;66408;51.326;12.070;2023-03-01T03:11:31;13.50;;;5.53;;
77332;SDS011;66408;51.326;12.070;2023-03-01T03:13:58;10.88;;;5.10;;
77332;SDS011;66408;51.326;12.070;2023-03-01T03:16:25;16.08;;;5.38;;
77332;SDS011;66408;51.326;12.070;2023-03-01T03:18:51;14.55;;;5.13;;
77332;SDS011;66408;51.326;12.070;2023-03-01T03:21:18;13.93;;;5.57;;
77332;SDS011;66408;51.326;12.070;2023-03-01T03:23:44;14.35;;;5.15;;
77332;SDS011;66408;51.326;12.070;2023-03-01T03:26:11;13.48;;;5.65;;
77332;SDS011;66408;51.326;12.070;2023-03-01T03:28:39;12.32;;;5.03;;
77332;SDS011;66408;51.326;12.070;2023-03-01T03:31:06;16.17;;;5.70;;
77332;SDS011;66408;51.326;12.070;2023-03-01T03:33:34;13.65;;;4.72;;
77332;SDS011;66408;51.326;12.070;2023-03-01T03:36:01;13.55;;;5.88;;
77332;SDS011;66408;51.326;12.070;2023-03-01T03:38:27;16.58;;;6.07;;
77332;SDS011;66408;51.326;12.070;2023-03-01T03:41:04;14.32;;;5.45;;
77332;SDS011;66408;51.326;12.070;2023-03-01T03:43:34;12.88;;;5.28;;
77332;SDS011;66408;51.326;12.070;2023-03-01T03:46:03;16.98;;;5.47;;
77332;SDS011;66408;51.326;12.070;2023-03-01T03:48:36;13.30;;;5.32;;
77332;SDS011;66408;51.326;12.070;2023-03-01T03:51:04;11.50;;;4.85;;
77332;SDS011;66408;51.326;12.070;2023-03-01T03:53:31;10.13;;;5.45;;
77332;SDS011;66408;51.326;12.070;2023-03-01T03:55:58;13.43;;;5.68;;
77332;SDS011;66408;51.326;12.070;2023-03-01T03:58:25;12.35;;;5.38;;
77332;SDS011;66408;51.326;12.070;2023-03-01T04:00:53;11.57;;;5.05;;
77332;SDS011;66408;51.326;12.070;2023-03-01T04:03:25;13.43;;;5.03;;
77332;SDS011;66408;51.326;12.070;2023-03-01T04:05:52;9.95;;;4.40;;
77332;SDS011;66408;51.326;12.070;2023-03-01T04:08:20;13.73;;;5.05;;
77332;SDS011;66408;51.326;12.070;2023-03-01T04:10:49;13.20;;;5.15;;
77332;SDS011;66408;51.326;12.070;2023-03-01T04:13:21;10.77;;;4.82;;
77332;SDS011;66408;51.326;12.070;2023-03-01T04:15:49;9.43;;;4.63;;
77332;SDS011;66408;51.326;12.070;2023-03-01T04:18:18;10.15;;;4.78;;
77332;SDS011;66408;51.326;12.070;2023-03-01T04:20:46;13.32;;;5.95;;
77332;SDS011;66408;51.326;12.070;2023-03-01T04:23:14;9.95;;;4.90;;
77332;SDS011;66408;51.326;12.070;2023-03-01T04:25:48;10.48;;;5.05;;
77332;SDS011;66408;51.326;12.070;2023-03-01T04:30:51;9.68;;;4.40;;
77332;SDS011;66408;51.326;12.070;2023-03-01T04:33:18;12.13;;;4.97;;
77332;SDS011;66408;51.326;12.070;2023-03-01T04:35:45;14.18;;;5.55;;
77332;SDS011;66408;51.326;12.070;2023-03-01T04:38:11;13.23;;;5.25;;
77332;SDS011;66408;51.326;12.070;2023-03-01T04:40:38;9.68;;;4.43;;
77332;SDS011;66408;51.326;12.070;2023-03-01T04:43:05;8.68;;;4.47;;
77332;SDS011;66408;51.326;12.070;2023-03-01T04:45:32;15.50;;;5.82;;
77332;SDS011;66408;51.326;12.070;2023-03-01T04:48:00;12.50;;;5.18;;
77332;SDS011;66408;51.326;12.070;2023-03-01T04:50:27;12.45;;;4.75;;
77332;SDS011;66408;51.326;12.070;2023-03-01T04:52:54;14.32;;;5.28;;
77332;SDS011;66408;51.326;12.070;2023-03-01T04:55:20;11.82;;;4.63;;
77332;SDS011;66408;51.326;12.070;2023-03-01T04:57:47;10.75;;;4.45;;
77332;SDS011;66408;51.326;12.070;2023-03-01T05:00:14;11.80;;;5.60;;
77332;SDS011;66408;51.326;12.070;2023-03-01T05:05:34;10.85;;;4.93;;
77332;SDS011;66408;51.326;12.070;2023-03-01T05:08:06;12.57;;;5.38;;
77332;SDS011;66408;51.326;12.070;2023-03-01T05:10:34;15.75;;;6.50;;
77332;SDS011;66408;51.326;12.070;2023-03-01T05:13:03;9.52;;;4.50;;
77332;SDS011;66408;51.326;12.070;2023-03-01T05:15:30;10.25;;;4.90;;
77332;SDS011;66408;51.326;12.070;2023-03-01T05:17:58;13.77;;;4.95;;
77332;SDS011;66408;51.326;12.070;2023-03-01T05:20:26;10.73;;;5.45;;
77332;SDS011;66408;51.326;12.070;2023-03-01T05:22:55;11.57;;;5.18;;
77332;SDS011;66408;51.326;12.070;2023-03-01T05:25:24;9.65;;;4.85;;
77332;SDS011;66408;51.326;12.070;2023-03-01T05:27:51;10.98;;;4.45;;
77332;SDS011;66408;51.326;12.070;2023-03-01T05:30:18;12.02;;;5.65;;
77332;SDS011;66408;51.326;12.070;2023-03-01T05:32:46;11.55;;;4.55;;
77332;SDS011;66408;51.326;12.070;2023-03-01T05:35:15;10.90;;;4.47;;
77332;SDS011;66408;51.326;12.070;2023-03-01T05:37:45;10.02;;;4.43;;
77332;SDS011;66408;51.326;12.070;2023-03-01T05:42:44;9.40;;;3.90;;
77332;SDS011;66408;51.326;12.070;2023-03-01T05:45:21;11.38;;;4.55;;
77332;SDS011;66408;51.326;12.070;2023-03-01T05:47:49;9.98;;;4.22;;
77332;SDS011;66408;51.326;12.070;2023-03-01T05:50:24;10.73;;;4.40;;
77332;SDS011;66408;51.326;12.070;2023-03-01T05:52:57;9.13;;;4.82;;
77332;SDS011;66408;51.326;12.070;2023-03-01T05:55:26;11.27;;;4.63;;
77332;SDS011;66408;51.326;12.070;2023-03-01T05:57:54;8.07;;;4.38;;
77332;SDS011;66408;51.326;12.070;2023-03-01T06:00:21;10.93;;;5.00;;
77332;SDS011;66408;51.326;12.070;2023-03-01T06:02:48;11.00;;;4.85;;
77332;SDS011;66408;51.326;12.070;2023-03-01T06:05:15;12.23;;;5.10;;
77332;SDS011;66408;51.326;12.070;2023-03-01T06:07:42;8.23;;;4.07;;
77332;SDS011;66408;51.326;12.070;2023-03-01T06:10:09;14.70;;;4.72;;
77332;SDS011;66408;51.326;12.070;2023-03-01T06:12:37;13.32;;;5.07;;
77332;SDS011;66408;51.326;12.070;2023-03-01T06:15:05;10.95;;;4.88;;
77332;SDS011;66408;51.326;12.070;2023-03-01T06:17:33;10.55;;;4.38;;
77332;SDS011;66408;51.326;12.070;2023-03-01T06:20:04;11.05;;;4.80;;
77332;SDS011;66408;51.326;12.070;2023-03-01T06:22:32;11.95;;;4.28;;
77332;SDS011;66408;51.326;12.070;2023-03-01T06:24:58;9.48;;;5.18;;
77332;SDS011;66408;51.326;12.070;2023-03-01T06:27:25;9.52;;;4.53;;
77332;SDS011;66408;51.326;12.070;2023-03-01T06:29:51;11.68;;;4.97;;
77332;SDS011;66408;51.326;12.070;2023-03-01T06:32:18;11.52;;;4.53;;
77332;SDS011;66408;51.326;12.070;2023-03-01T06:34:44;11.18;;;4.65;;
77332;SDS011;66408;51.326;12.070;2023-03-01T06:37:11;15.05;;;4.82;;
77332;SDS011;66408;51.326;12.070;2023-03-01T06:39:38;11.75;;;4.70;;
77332;SDS011;66408;51.326;12.070;2023-03-01T06:42:05;13.18;;;4.95;;
77332;SDS011;66408;51.326;12.070;2023-03-01T06:44:31;12.85;;;4.60;;
77332;SDS011;66408;51.326;12.070;2023-03-01T06:46:58;12.93;;;4.90;;
77332;SDS011;66408;51.326;12.070;2023-03-01T06:49:25;12.63;;;5.18;;
77332;SDS011;66408;51.326;12.070;2023-03-01T06:51:52;10.77;;;5.05;;
77332;SDS011;66408;51.326;12.070;2023-03-01T06:54:18;12.02;;;4.38;;
77332;SDS011;66408;51.326;12.070;2023-03-01T06:56:48;13.90;;;4.85;;
77332;SDS011;66408;51.326;12.070;2023-03-01T06:59:16;16.58;;;5.03;;
77332;SDS011;66408;51.326;12.070;2023-03-01T07:01:43;12.10;;;4.93;;
77332;SDS011;66408;51.326;12.070;2023-03-01T07:04:10;11.50;;;4.78;;
77332;SDS011;66408;51.326;12.070;2023-03-01T07:06:37;12.82;;;4.68;;
77332;SDS011;66408;51.326;12.070;2023-03-01T07:09:04;11.63;;;4.97;;
77332;SDS011;66408;51.326;12.070;2023-03-01T07:11:30;13.07;;;5.47;;
77332;SDS011;66408;51.326;12.070;2023-03-01T07:13:57;12.18;;;4.95;;
77332;SDS011;66408;51.326;12.070;2023-03-01T07:16:26;11.15;;;4.72;;
77332;SDS011;66408;51.326;12.070;2023-03-01T07:18:52;12.80;;;5.13;;
77332;SDS011;66408;51.326;12.070;2023-03-01T07:21:19;9.65;;;4.72;;
77332;SDS011;66408;51.326;12.070;2023-03-01T07:23:47;10.55;;;4.55;;
77332;SDS011;66408;51.326;12.070;2023-03-01T07:26:14;9.80;;;4.75;;
77332;SDS011;66408;51.326;12.070;2023-03-01T07:28:40;11.38;;;4.82;;
77332;SDS011;66408;51.326;12.070;2023-03-01T07:31:12;10.40;;;4.78;;
77332;SDS011;66408;51.326;12.070;2023-03-01T07:33:39;10.48;;;5.05;;
77332;SDS011;66408;51.326;12.070;2023-03-01T07:36:05;15.43;;;5.93;;
77332;SDS011;66408;51.326;12.070;2023-03-01T07:38:32;11.85;;;5.32;;
77332;SDS011;66408;51.326;12.070;2023-03-01T07:41:00;9.55;;;4.75;;
77332;SDS011;66408;51.326;12.070;2023-03-01T07:43:28;9.88;;;5.03;;
77332;SDS011;66408;51.326;12.070;2023-03-01T07:45:57;11.45;;;4.75;;
77332;SDS011;66408;51.326;12.070;2023-03-01T07:48:25;10.93;;;4.75;;
77332;SDS011;66408;51.326;12.070;2023-03-01T07:50:51;14.23;;;5.72;;
77332;SDS011;66408;51.326;12.070;2023-03-01T07:53:18;11.20;;;5.32;;
77332;SDS011;66408;51.326;12.070;2023-03-01T07:55:44;10.88;;;4.78;;
77332;SDS011;66408;51.326;12.070;2023-03-01T07:58:11;11.18;;;4.82;;
77332;SDS011;66408;51.326;12.070;2023-03-01T08:00:37;11.68;;;5.15;;
77332;SDS011;66408;51.326;12.070;2023-03-01T08:03:03;14.15;;;5.32;;
77332;SDS011;66408;51.326;12.070;2023-03-01T08:05:30;10.05;;;5.22;;
77332;SDS011;66408;51.326;12.070;2023-03-01T08:07:57;11.80;;;5.72;;
77332;SDS011;66408;51.326;12.070;2023-03-01T08:10:23;12.73;;;5.55;;
77332;SDS011;66408;51.326;12.070;2023-03-01T08:12:51;12.98;;;5.63;;
77332;SDS011;66408;51.326;12.070;2023-03-01T08:15:18;11.68;;;6.00;;
77332;SDS011;66408;51.326;12.070;2023-03-01T08:17:45;11.02;;;5.88;;
77332;SDS011;66408;51.326;12.070;2023-03-01T08:20:11;11.35;;;5.75;;
77332;SDS011;66408;51.326;12.070;2023-03-01T08:22:38;13.50;;;6.00;;
77332;SDS011;66408;51.326;12.070;2023-03-01T08:25:05;16.20;;;6.28;;
77332;SDS011;66408;51.326;12.070;2023-03-01T08:27:32;14.52;;;6.30;;
77332;SDS011;66408;51.326;12.070;2023-03-01T08:30:01;13.07;;;6.70;;
77332;SDS011;66408;51.326;12.070;2023-03-01T08:32:27;13.40;;;5.70;;
77332;SDS011;66408;51.326;12.070;2023-03-01T08:34:54;14.20;;;6.25;;
77332;SDS011;66408;51.326;12.070;2023-03-01T08:37:20;14.25;;;6.65;;
77332;SDS011;66408;51.326;12.070;2023-03-01T08:39:47;13.43;;;6.38;;
77332;SDS011;66408;51.326;12.070;2023-03-01T08:42:13;11.98;;;6.20;;
77332;SDS011;66408;51.326;12.070;2023-03-01T08:44:40;15.38;;;6.55;;
77332;SDS011;66408;51.326;12.070;2023-03-01T08:47:06;16.33;;;6.82;;
77332;SDS011;66408;51.326;12.070;2023-03-01T08:49:33;12.25;;;6.05;;
77332;SDS011;66408;51.326;12.070;2023-03-01T08:51:59;14.23;;;6.40;;
77332;SDS011;66408;51.326;12.070;2023-03-01T08:54:28;14.10;;;6.78;;
77332;SDS011;66408;51.326;12.070;2023-03-01T08:56:55;13.73;;;6.30;;
77332;SDS011;66408;51.326;12.070;2023-03-01T08:59:21;16.58;;;7.10;;
77332;SDS011;66408;51.326;12.070;2023-03-01T09:01:47;15.30;;;6.90;;
77332;SDS011;66408;51.326;12.070;2023-03-01T09:04:14;14.93;;;6.78;;
77332;SDS011;66408;51.326;12.070;2023-03-01T09:06:42;13.40;;;6.63;;
77332;SDS011;66408;51.326;12.070;2023-03-01T09:09:15;13.48;;;6.70;;
77332;SDS011;66408;51.326;12.070;2023-03-01T09:11:43;17.48;;;7.10;;
77332;SDS011;66408;51.326;12.070;2023-03-01T09:14:12;15.85;;;7.15;;
77332;SDS011;66408;51.326;12.070;2023-03-01T09:16:39;15.82;;;7.35;;
77332;SDS011;66408;51.326;12.070;2023-03-01T09:19:06;16.90;;;7.38;;
77332;SDS011;66408;51.326;12.070;2023-03-01T09:21:32;17.02;;;7.07;;
77332;SDS011;66408;51.326;12.070;2023-03-01T09:24:15;11.95;;;6.60;;
77332;SDS011;66408;51.326;12.070;2023-03-01T09:26:41;17.92;;;8.00;;
77332;SDS011;66408;51.326;12.070;2023-03-01T09:29:09;19.70;;;7.30;;
77332;SDS011;66408;51.326;12.070;2023-03-01T09:31:36;17.10;;;7.70;;
77332;SDS011;66408;51.326;12.070;2023-03-01T09:34:02;16.95;;;7.97;;
77332;SDS011;66408;51.326;12.070;2023-03-01T09:36:29;14.63;;;7.43;;
77332;SDS011;66408;51.326;12.070;2023-03-01T09:38:59;16.35;;;7.97;;
77332;SDS011;66408;51.326;12.070;2023-03-01T09:41:44;15.82;;;7.78;;
77332;SDS011;66408;51.326;12.070;2023-03-01T09:46:55;15.93;;;7.43;;
77332;SDS011;66408;51.326;12.070;2023-03-01T09:49:30;18.25;;;8.10;;
77332;SDS011;66408;51.326;12.070;2023-03-01T09:54:52;18.75;;;9.27;;
77332;SDS011;66408;51.326;12.070;2023-03-01T10:00:22;23.58;;;10.10;;
77332;SDS011;66408;51.326;12.070;2023-03-01T10:05:47;17.85;;;9.32;;
77332;SDS011;66408;51.326;12.070;2023-03-01T10:08:34;21.27;;;9.65;;
77332;SDS011;66408;51.326;12.070;2023-03-01T10:11:18;18.90;;;8.63;;
77332;SDS011;66408;51.326;12.070;2023-03-01T10:13:54;15.80;;;8.98;;
77332;SDS011;66408;51.326;12.070;2023-03-01T10:16:32;19.02;;;9.60;;
77332;SDS011;66408;51.326;12.070;2023-03-01T10:19:41;20.50;;;9.10;;
77332;SDS011;66408;51.326;12.070;2023-03-01T10:22:15;17.58;;;8.55;;
77332;SDS011;66408;51.326;12.070;2023-03-01T10:24:48;20.52;;;9.30;;
77332;SDS011;66408;51.326;12.070;2023-03-01T10:29:46;17.17;;;8.52;;
77332;SDS011;66408;51.326;12.070;2023-03-01T10:32:43;17.42;;;7.97;;
77332;SDS011;66408;51.326;12.070;2023-03-01T10:38:09;17.10;;;8.32;;
77332;SDS011;66408;51.326;12.070;2023-03-01T10:40:49;22.13;;;9.65;;
77332;SDS011;66408;51.326;12.070;2023-03-01T10:43:16;17.50;;;8.55;;
77332;SDS011;66408;51.326;12.070;2023-03-01T10:45:43;17.02;;;9.07;;
77332;SDS011;66408;51.326;12.070;2023-03-01T10:50:40;18.88;;;8.48;;
77332;SDS011;66408;51.326;12.070;2023-03-01T10:53:22;17.95;;;8.85;;
77332;SDS011;66408;51.326;12.070;2023-03-01T10:58:58;15.23;;;7.65;;
77332;SDS011;66408;51.326;12.070;2023-03-01T11:01:31;18.33;;;8.35;;
77332;SDS011;66408;51.326;12.070;2023-03-01T11:06:34;16.88;;;8.30;;
77332;SDS011;66408;51.326;12.070;2023-03-01T11:11:54;14.85;;;7.70;;
77332;SDS011;66408;51.326;12.070;2023-03-01T11:19:39;18.92;;;8.75;;
77332;SDS011;66408;51.326;12.070;2023-03-01T11:22:12;20.10;;;9.23;;
77332;SDS011;66408;51.326;12.070;2023-03-01T11:24:47;20.40;;;9.32;;
77332;SDS011;66408;51.326;12.070;2023-03-01T11:27:35;18.77;;;9.38;;
77332;SDS011;66408;51.326;12.070;2023-03-01T11:30:07;20.20;;;9.32;;
77332;SDS011;66408;51.326;12.070;2023-03-01T11:35:35;19.95;;;9.57;;
77332;SDS011;66408;51.326;12.070;2023-03-01T11:38:25;17.02;;;9.27;;
77332;SDS011;66408;51.326;12.070;2023-03-01T11:41:00;19.02;;;8.55;;
77332;SDS011;66408;51.326;12.070;2023-03-01T12:05:41;15.93;;;7.30;;
77332;SDS011;66408;51.326;12.070;2023-03-01T12:08:36;18.27;;;7.57;;
77332;SDS011;66408;51.326;12.070;2023-03-01T12:22:32;14.68;;;7.32;;
77332;SDS011;66408;51.326;12.070;2023-03-01T12:39:18;14.13;;;7.00;;
77332;SDS011;66408;51.326;12.070;2023-03-01T12:46:47;16.45;;;7.05;;
77332;SDS011;66408;51.326;12.070;2023-03-01T12:49:30;15.75;;;7.28;;
77332;SDS011;66408;51.326;12.070;2023-03-01T12:52:08;11.90;;;6.32;;
77332;SDS011;66408;51.326;12.070;2023-03-01T12:54:39;12.52;;;5.70;;
77332;SDS011;66408;51.326;12.070;2023-03-01T12:57:26;12.02;;;6.18;;
77332;SDS011;66408;51.326;12.070;2023-03-01T13:00:28;12.13;;;6.40;;
77332;SDS011;66408;51.326;12.070;2023-03-01T13:06:19;14.10;;;7.28;;
77332;SDS011;66408;51.326;12.070;2023-03-01T13:09:54;14.63;;;6.97;;
77332;SDS011;66408;51.326;12.070;2023-03-01T13:11:54;12.45;;;6.72;;
77332;SDS011;66408;51.326;12.070;2023-03-01T13:16:49;11.82;;;6.50;;
77332;SDS011;66408;51.326;12.070;2023-03-01T13:19:23;11.10;;;5.60;;
77332;SDS011;66408;51.326;12.070;2023-03-01T13:21:51;12.43;;;6.80;;
77332;SDS011;66408;51.326;12.070;2023-03-01T13:24:35;16.27;;;7.80;;
77332;SDS011;66408;51.326;12.070;2023-03-01T13:37:41;14.05;;;6.95;;
77332;SDS011;66408;51.326;12.070;2023-03-01T13:42:45;13.45;;;6.10;;
77332;SDS011;66408;51.326;12.070;2023-03-01T13:45:38;14.25;;;7.15;;
77332;SDS011;66408;51.326;12.070;2023-03-01T13:48:17;14.98;;;6.57;;
77332;SDS011;66408;51.326;12.070;2023-03-01T13:50:54;16.00;;;7.13;;
77332;SDS011;66408;51.326;12.070;2023-03-01T13:53:26;12.55;;;6.20;;
77332;SDS011;66408;51.326;12.070;2023-03-01T13:56:08;15.55;;;6.93;;
77332;SDS011;66408;51.326;12.070;2023-03-01T13:58:52;11.48;;;6.50;;
77332;SDS011;66408;51.326;12.070;2023-03-01T14:01:26;13.57;;;6.40;;
77332;SDS011;66408;51.326;12.070;2023-03-01T14:04:01;12.98;;;5.40;;
77332;SDS011;66408;51.326;12.070;2023-03-01T14:09:04;9.70;;;5.38;;
77332;SDS011;66408;51.326;12.070;2023-03-01T14:16:49;11.88;;;5.40;;
77332;SDS011;66408;51.326;12.070;2023-03-01T14:19:33;10.60;;;5.32;;
77332;SDS011;66408;51.326;12.070;2023-03-01T14:22:20;12.15;;;5.65;;
77332;SDS011;66408;51.326;12.070;2023-03-01T14:24:50;12.50;;;5.60;;
77332;SDS011;66408;51.326;12.070;2023-03-01T14:27:20;12.52;;;5.95;;
77332;SDS011;66408;51.326;12.070;2023-03-01T14:29:59;12.82;;;5.90;;
77332;SDS011;66408;51.326;12.070;2023-03-01T14:32:28;12.60;;;4.97;;
77332;SDS011;66408;51.326;12.070;2023-03-01T14:34:57;11.18;;;5.35;;
77332;SDS011;66408;51.326;12.070;2023-03-01T14:37:29;11.27;;;5.68;;
77332;SDS011;66408;51.326;12.070;2023-03-01T14:39:59;13.43;;;5.70;;
77332;SDS011;66408;51.326;12.070;2023-03-01T14:42:29;11.70;;;5.68;;
77332;SDS011;66408;51.326;12.070;2023-03-01T14:45:00;9.95;;;4.90;;
77332;SDS011;66408;51.326;12.070;2023-03-01T14:47:30;11.60;;;4.63;;
77332;SDS011;66408;51.326;12.070;2023-03-01T14:49:59;8.43;;;4.38;;
77332;SDS011;66408;51.326;12.070;2023-03-01T14:52:46;9.52;;;4.32;;
77332;SDS011;66408;51.326;12.070;2023-03-01T14:55:19;8.45;;;4.07;;
77332;SDS011;66408;51.326;12.070;2023-03-01T14:57:50;8.05;;;4.00;;
77332;SDS011;66408;51.326;12.070;2023-03-01T15:00:20;8.15;;;3.83;;
77332;SDS011;66408;51.326;12.070;2023-03-01T15:02:50;8.30;;;3.83;;
77332;SDS011;66408;51.326;12.070;2023-03-01T15:05:22;8.88;;;4.35;;
77332;SDS011;66408;51.326;12.070;2023-03-01T15:08:00;8.60;;;3.90;;
77332;SDS011;66408;51.326;12.070;2023-03-01T15:10:32;9.23;;;4.03;;
77332;SDS011;66408;51.326;12.070;2023-03-01T15:13:19;8.95;;;4.00;;
77332;SDS011;66408;51.326;12.070;2023-03-01T15:15:48;8.10;;;3.47;;
77332;SDS011;66408;51.326;12.070;2023-03-01T15:18:27;7.63;;;3.50;;
77332;SDS011;66408;51.326;12.070;2023-03-01T15:20:55;7.05;;;3.80;;
77332;SDS011;66408;51.326;12.070;2023-03-01T15:23:31;8.57;;;3.80;;
77332;SDS011;66408;51.326;12.070;2023-03-01T15:25:57;10.65;;;4.03;;
77332;SDS011;66408;51.326;12.070;2023-03-01T15:28:25;9.07;;;3.78;;
77332;SDS011;66408;51.326;12.070;2023-03-01T15:30:55;9.52;;;3.75;;
77332;SDS011;66408;51.326;12.070;2023-03-01T15:33:28;9.48;;;3.83;;
77332;SDS011;66408;51.326;12.070;2023-03-01T15:36:01;10.18;;;3.65;;
77332;SDS011;66408;51.326;12.070;2023-03-01T15:38:51;8.50;;;3.65;;
77332;SDS011;66408;51.326;12.070;2023-03-01T15:41:28;8.07;;;3.78;;
77332;SDS011;66408;51.326;12.070;2023-03-01T15:44:00;7.85;;;3.70;;
77332;SDS011;66408;51.326;12.070;2023-03-01T15:46:40;8.23;;;3.45;;
77332;SDS011;66408;51.326;12.070;2023-03-01T15:52:21;9.38;;;3.88;;
77332;SDS011;66408;51.326;12.070;2023-03-01T15:55:03;10.00;;;4.20;;
77332;SDS011;66408;51.326;12.070;2023-03-01T15:57:32;8.70;;;3.75;;
77332;SDS011;66408;51.326;12.070;2023-03-01T15:59:59;9.05;;;3.53;;
77332;SDS011;66408;51.326;12.070;2023-03-01T16:02:25;7.18;;;3.55;;
77332;SDS011;66408;51.326;12.070;2023-03-01T16:04:52;7.32;;;3.15;;
77332;SDS011;66408;51.326;12.070;2023-03-01T16:07:19;6.32;;;2.95;;
77332;SDS011;66408;51.326;12.070;2023-03-01T16:09:46;9.25;;;3.47;;
77332;SDS011;66408;51.326;12.070;2023-03-01T16:12:13;7.60;;;3.53;;
77332;SDS011;66408;51.326;12.070;2023-03-01T16:14:41;7.72;;;3.40;;
77332;SDS011;66408;51.326;12.070;2023-03-01T16:17:08;8.20;;;3.65;;
77332;SDS011;66408;51.326;12.070;2023-03-01T16:19:39;7.80;;;3.50;;
77332;SDS011;66408;51.326;12.070;2023-03-01T16:22:09;10.30;;;4.55;;
77332;SDS011;66408;51.326;12.070;2023-03-01T16:24:36;9.60;;;4.63;;
77332;SDS011;66408;51.326;12.070;2023-03-01T16:27:03;9.80;;;4.53;;
77332;SDS011;66408;51.326;12.070;2023-03-01T16:29:30;9.52;;;4.35;;
77332;SDS011;66408;51.326;12.070;2023-03-01T16:31:56;7.85;;;3.85;;
77332;SDS011;66408;51.326;12.070;2023-03-01T16:34:27;6.15;;;2.92;;
77332;SDS011;66408;51.326;12.070;2023-03-01T16:36:53;7.00;;;3.22;;
77332;SDS011;66408;51.326;12.070;2023-03-01T16:39:20;7.78;;;3.28;;
77332;SDS011;66408;51.326;12.070;2023-03-01T16:41:46;7.13;;;3.65;;
77332;SDS011;66408;51.326;12.070;2023-03-01T16:44:14;6.00;;;3.15;;
77332;SDS011;66408;51.326;12.070;2023-03-01T16:46:41;7.85;;;3.45;;
77332;SDS011;66408;51.326;12.070;2023-03-01T16:49:08;7.00;;;3.42;;
77332;SDS011;66408;51.326;12.070;2023-03-01T16:51:35;8.05;;;3.13;;
77332;SDS011;66408;51.326;12.070;2023-03-01T16:54:03;7.35;;;3.55;;
77332;SDS011;66408;51.326;12.070;2023-03-01T16:56:31;7.13;;;3.08;;